createdAt,value
2022-10-17T10:40:50.250Z,58.37
2022-10-17T10:41:50.232Z,56.30
2022-10-17T10:42:50.224Z,57.28
2022-10-17T10:43:50.220Z,59.61
2022-10-17T10:44:50.204Z,58.14
2022-10-17T10:45:51.318Z,59.46
2022-10-17T10:46:51.321Z,60.13
2022-10-17T10:47:51.303Z,57.55
2022-10-17T10:48:51.313Z,57.52
2022-10-17T10:49:51.299Z,58.97
2022-10-17T10:50:51.251Z,59.72
2022-10-17T10:51:51.248Z,59.98
2022-10-17T10:52:51.243Z,59.12
2022-10-17T10:53:51.239Z,59.19
2022-10-17T10:54:51.221Z,57.29
2022-10-17T10:55:51.209Z,58.16
2022-10-17T10:56:53.342Z,59.47
2022-10-17T10:57:52.189Z,58.38
2022-10-17T10:58:51.184Z,60.11
2022-10-17T10:59:51.165Z,60.42
2022-10-17T11:00:51.209Z,60.24
2022-10-17T11:01:51.150Z,60.65
2022-10-17T11:02:51.182Z,60.90
2022-10-17T11:03:51.141Z,60.84
2022-10-17T11:04:51.116Z,62.07
2022-10-17T11:05:51.107Z,61.79
2022-10-17T11:06:51.107Z,61.02
2022-10-17T11:07:51.109Z,62.16
2022-10-17T11:08:51.092Z,61.14
2022-10-17T11:09:51.075Z,59.97
2022-10-17T11:10:51.067Z,60.89
2022-10-17T11:11:51.050Z,60.47
2022-10-17T11:12:51.043Z,60.34
2022-10-17T11:13:53.357Z,60.01
2022-10-17T11:14:51.027Z,60.42
2022-10-17T11:15:51.019Z,60.83
2022-10-17T11:16:51.007Z,60.72
2022-10-17T11:17:50.995Z,61.85
2022-10-17T11:18:50.999Z,62.79
2022-10-17T11:19:50.974Z,61.66
2022-10-17T11:20:50.967Z,61.32
2022-10-17T11:21:50.981Z,61.91
2022-10-17T11:22:50.949Z,61.24
2022-10-17T11:23:50.951Z,61.02
2022-10-17T11:24:50.935Z,60.27
2022-10-17T11:25:50.926Z,60.84
2022-10-17T11:26:50.907Z,59.64
2022-10-17T11:27:50.900Z,61.08
2022-10-17T11:28:51.094Z,62.30
2022-10-17T11:29:50.979Z,61.49
2022-10-17T11:30:50.873Z,60.59
2022-10-17T11:31:50.867Z,61.40
2022-10-17T11:32:50.849Z,61.08
2022-10-17T11:33:50.851Z,60.75
2022-10-17T11:34:50.836Z,61.82
2022-10-17T11:35:50.897Z,61.60
2022-10-17T11:36:50.811Z,61.51
2022-10-17T11:37:50.806Z,62.23
2022-10-17T11:38:50.795Z,62.14
2022-10-17T11:39:50.787Z,60.62
2022-10-17T11:40:50.774Z,58.81
2022-10-17T11:41:51.438Z,62.52
2022-10-17T11:42:50.811Z,61.58
2022-10-17T11:43:50.758Z,61.97
2022-10-17T11:44:50.733Z,63.04
2022-10-17T11:45:50.725Z,61.08
2022-10-17T11:46:50.711Z,61.43
2022-10-17T11:47:50.710Z,62.18
2022-10-17T11:48:50.690Z,62.25
2022-10-17T11:49:51.499Z,61.71
2022-10-17T11:52:01.483Z,60.09
2022-10-17T11:52:56.397Z,62.77
2022-10-17T11:53:51.646Z,60.21
2022-10-17T11:54:50.638Z,62.08
2022-10-17T11:55:50.623Z,60.70
2022-10-17T11:56:50.633Z,61.65
2022-10-17T11:57:50.617Z,60.53
2022-10-17T11:58:50.598Z,61.95
2022-10-17T11:59:50.587Z,61.26
2022-10-17T12:00:50.610Z,62.21
2022-10-17T12:01:50.569Z,61.88
2022-10-17T12:02:50.578Z,62.36
2022-10-17T12:03:50.577Z,61.00
2022-10-17T12:04:50.570Z,60.28
2022-10-17T12:05:50.532Z,60.83
2022-10-17T12:06:51.212Z,60.97
2022-10-17T12:07:50.523Z,60.46
2022-10-17T12:08:50.500Z,61.54
2022-10-17T12:09:50.492Z,60.86
2022-10-17T12:10:50.483Z,61.51
2022-10-17T12:11:50.476Z,62.40
2022-10-17T12:12:50.480Z,60.60
2022-10-17T12:13:50.467Z,62.31
2022-10-17T12:14:50.446Z,62.82
2022-10-17T12:15:50.447Z,61.86
2022-10-17T12:16:50.431Z,63.01
2022-10-17T12:17:50.425Z,61.83
2022-10-17T12:18:50.419Z,61.17
2022-10-17T12:19:50.404Z,61.14
2022-10-17T12:20:50.394Z,63.64
2022-10-17T12:21:50.393Z,61.34
2022-10-17T12:22:50.371Z,61.21
2022-10-17T12:23:50.368Z,61.56
2022-10-17T12:24:50.353Z,61.38
2022-10-17T12:25:50.353Z,62.23
2022-10-17T12:26:51.539Z,60.53
2022-10-17T12:27:50.337Z,63.16
2022-10-17T12:28:50.411Z,62.14
2022-10-17T12:29:50.300Z,61.48
2022-10-17T12:30:50.290Z,62.58
2022-10-17T12:31:50.278Z,60.85
2022-10-17T12:33:04.086Z,63.99
2022-10-17T12:33:52.273Z,63.42
2022-10-17T12:34:50.291Z,61.51
2022-10-17T12:35:50.245Z,63.58
2022-10-17T12:36:50.244Z,63.71
2022-10-17T12:37:50.223Z,64.51
2022-10-17T12:38:50.416Z,63.66
2022-10-17T12:39:50.208Z,63.75
2022-10-17T12:40:50.198Z,61.85
2022-10-17T12:41:50.194Z,61.81
2022-10-17T12:42:50.193Z,63.14
2022-10-17T12:44:51.202Z,62.69
2022-10-17T12:45:51.149Z,62.17
2022-10-17T12:46:50.141Z,60.55
2022-10-17T12:47:50.134Z,61.00
2022-10-17T12:48:50.123Z,62.27
2022-10-17T12:49:52.116Z,62.10
2022-10-17T12:50:51.097Z,61.85
2022-10-17T12:51:50.091Z,62.34
2022-10-17T12:53:50.082Z,61.53
2022-10-17T12:55:00.126Z,62.40
2022-10-17T12:55:52.055Z,62.71
2022-10-17T12:56:50.043Z,63.05
2022-10-17T12:57:50.088Z,61.57
2022-10-17T12:58:50.034Z,62.29
2022-10-17T12:59:50.014Z,61.36
2022-10-17T13:01:11.603Z,61.44
2022-10-17T13:01:52.076Z,62.90
2022-10-17T13:03:21.902Z,61.72
2022-10-17T13:03:50.429Z,62.97
2022-10-17T13:04:49.967Z,63.19
2022-10-17T13:05:49.955Z,68.65
2022-10-17T13:06:49.945Z,80.58
2022-10-17T13:07:49.934Z,72.36
2022-10-17T13:08:54.813Z,63.12
2022-10-17T13:09:51.913Z,62.49
2022-10-17T13:10:51.773Z,61.79
2022-10-17T13:11:49.896Z,60.85
2022-10-17T13:12:49.886Z,62.63
2022-10-17T13:13:49.888Z,63.35
2022-10-17T13:14:49.869Z,62.35
2022-10-17T13:15:49.862Z,61.86
2022-10-17T13:16:49.850Z,62.03
2022-10-17T13:17:49.850Z,61.78
2022-10-17T13:18:49.842Z,62.04
2022-10-17T13:19:49.818Z,62.24
2022-10-17T13:20:49.814Z,62.39
2022-10-17T13:21:49.805Z,62.71
2022-10-17T13:22:49.790Z,62.24
2022-10-17T13:23:49.795Z,61.92
2022-10-17T13:24:49.767Z,62.35
2022-10-17T13:25:49.759Z,63.19
2022-10-17T13:26:49.752Z,63.38
2022-10-17T13:27:49.748Z,62.19
2022-10-17T13:28:49.806Z,61.37
2022-10-17T13:29:49.726Z,61.93
2022-10-17T13:30:49.988Z,62.45
2022-10-17T13:31:50.704Z,61.85
2022-10-17T13:32:49.695Z,63.98
2022-10-17T13:33:49.693Z,62.13
2022-10-17T13:34:49.674Z,61.82
2022-10-17T13:36:00.044Z,61.53
2022-10-17T13:36:51.660Z,62.97
2022-10-17T13:37:53.801Z,63.65
2022-10-17T13:38:50.648Z,62.94
2022-10-17T13:39:55.761Z,64.53
2022-10-17T13:40:51.622Z,64.42
2022-10-17T13:41:49.609Z,62.31
2022-10-17T13:42:49.601Z,63.60
2022-10-17T13:43:49.600Z,59.76
2022-10-17T13:44:49.579Z,61.56
2022-10-17T13:45:49.571Z,62.46
2022-10-17T13:46:49.562Z,63.03
2022-10-17T13:47:49.565Z,62.04
2022-10-17T13:48:49.568Z,63.27
2022-10-17T13:49:51.591Z,63.67
2022-10-17T13:50:50.521Z,61.35
2022-10-17T13:51:49.515Z,61.60
2022-10-17T13:52:49.508Z,62.49
2022-10-17T13:53:49.505Z,61.49
2022-10-17T13:54:49.485Z,61.13
2022-10-17T13:56:03.579Z,63.46
2022-10-17T13:56:51.520Z,61.68
2022-10-17T13:57:49.462Z,62.93
2022-10-17T13:58:49.462Z,63.22
2022-10-17T13:59:49.436Z,62.97
2022-10-17T14:00:49.484Z,62.92
2022-10-17T14:01:49.419Z,63.52
2022-10-17T14:02:49.410Z,62.92
2022-10-17T14:03:54.103Z,62.71
2022-10-17T14:05:15.786Z,63.16
2022-10-17T14:05:51.383Z,62.71
2022-10-17T14:06:49.564Z,62.91
2022-10-17T14:08:09.920Z,62.98
2022-10-17T14:08:51.370Z,63.47
2022-10-17T14:09:49.348Z,63.33
2022-10-17T14:10:49.339Z,61.67
2022-10-17T14:11:49.364Z,63.76
2022-10-17T14:12:51.139Z,63.73
2022-10-17T14:13:50.319Z,61.78
2022-10-17T14:15:09.382Z,62.33
2022-10-17T14:15:51.289Z,61.38
2022-10-17T14:16:49.278Z,61.84
2022-10-17T14:17:49.276Z,64.51
2022-10-17T14:18:49.308Z,63.00
2022-10-17T14:20:05.860Z,62.86
2022-10-17T14:21:33.984Z,62.73
2022-10-17T14:21:51.235Z,63.57
2022-10-17T14:23:04.435Z,64.03
2022-10-17T14:23:51.234Z,65.48
2022-10-17T14:24:49.203Z,62.45
2022-10-17T14:25:49.193Z,64.49
2022-10-17T14:26:49.185Z,62.77
2022-10-17T14:27:49.183Z,62.31
2022-10-17T14:28:49.235Z,63.42
2022-10-17T14:29:49.155Z,62.43
2022-10-17T14:30:56.754Z,63.70
2022-10-17T14:31:51.133Z,62.64
2022-10-17T14:32:49.123Z,62.01
2022-10-17T14:33:50.852Z,62.67
2022-10-17T14:34:49.104Z,62.83
2022-10-17T14:35:49.112Z,65.11
2022-10-17T14:36:49.088Z,63.00
2022-10-17T14:37:49.080Z,63.79
2022-10-17T14:38:49.076Z,63.09
2022-10-17T14:39:49.055Z,62.39
2022-10-17T14:40:49.049Z,63.11
2022-10-17T14:41:49.046Z,64.67
2022-10-17T14:42:49.030Z,65.52
2022-10-17T14:43:49.060Z,64.61
2022-10-17T14:44:49.014Z,65.11
2022-10-17T14:45:49.000Z,63.15
2022-10-17T14:46:50.929Z,61.28
2022-10-17T14:47:50.396Z,64.13
2022-10-17T14:48:48.983Z,63.97
2022-10-17T14:49:48.964Z,64.99
2022-10-17T14:50:48.970Z,62.39
2022-10-17T14:51:56.828Z,63.46
2022-10-17T14:52:50.934Z,63.60
2022-10-17T14:53:48.937Z,64.81
2022-10-17T14:54:48.927Z,64.66
2022-10-17T14:55:48.912Z,65.10
2022-10-17T14:56:48.903Z,62.37
2022-10-17T14:57:48.889Z,65.09
2022-10-17T14:58:48.929Z,64.56
2022-10-17T14:59:56.287Z,63.85
2022-10-17T15:00:50.868Z,64.05
2022-10-17T15:01:48.853Z,64.71
2022-10-17T15:02:48.840Z,65.49
2022-10-17T15:03:48.908Z,63.96
2022-10-17T15:04:48.819Z,64.80
2022-10-17T15:05:48.813Z,66.50
2022-10-17T15:06:48.803Z,62.86
2022-10-17T15:07:48.791Z,66.12
2022-10-17T15:08:48.795Z,67.15
2022-10-17T15:09:48.779Z,64.66
2022-10-17T15:10:48.762Z,64.03
2022-10-17T15:11:48.754Z,65.63
2022-10-17T15:12:57.578Z,63.95
2022-10-17T15:13:49.743Z,64.40
2022-10-17T15:14:48.742Z,64.26
2022-10-17T15:15:48.715Z,65.21
2022-10-17T15:16:48.698Z,64.29
2022-10-17T15:17:49.699Z,63.73
2022-10-17T15:18:48.702Z,64.58
2022-10-17T15:19:48.678Z,65.69
2022-10-17T15:20:55.263Z,63.38
2022-10-17T15:21:49.659Z,65.47
2022-10-17T15:22:48.648Z,64.33
2022-10-17T15:23:48.640Z,62.94
2022-10-17T15:24:49.630Z,63.64
2022-10-17T15:25:48.623Z,65.85
2022-10-17T15:26:48.665Z,66.20
2022-10-17T15:27:48.598Z,64.28
2022-10-17T15:28:48.646Z,63.87
2022-10-17T15:29:48.578Z,63.86
2022-10-17T15:30:48.577Z,64.54
2022-10-17T15:31:48.563Z,64.47
2022-10-17T15:32:48.559Z,65.42
2022-10-17T15:33:48.556Z,65.24
2022-10-17T15:34:48.537Z,61.98
2022-10-17T15:35:48.576Z,64.88
2022-10-17T15:36:48.511Z,63.32
2022-10-17T15:37:48.508Z,61.82
2022-10-17T15:38:48.509Z,63.58
2022-10-17T15:39:48.486Z,63.52
2022-10-17T15:40:48.475Z,64.27
2022-10-17T15:41:48.460Z,62.23
2022-10-17T15:42:49.460Z,62.01
2022-10-17T15:43:48.458Z,62.76
2022-10-17T15:44:48.439Z,65.21
2022-10-17T15:45:48.440Z,62.63
2022-10-17T15:46:48.421Z,62.22
2022-10-17T15:47:48.411Z,64.34
2022-10-17T15:48:48.404Z,60.57
2022-10-17T15:49:49.389Z,63.22
2022-10-17T15:50:48.381Z,63.02
2022-10-17T15:51:51.741Z,61.45
2022-10-17T15:52:50.362Z,62.27
2022-10-17T15:53:48.362Z,64.03
2022-10-17T15:54:48.372Z,63.54
2022-10-17T15:55:48.334Z,62.31
2022-10-17T15:56:48.339Z,62.78
2022-10-17T15:57:48.331Z,62.86
2022-10-17T15:58:48.325Z,64.13
2022-10-17T15:59:48.299Z,64.57
2022-10-17T16:00:48.363Z,62.09
2022-10-17T16:01:48.280Z,63.37
2022-10-17T16:02:48.274Z,62.33
2022-10-17T16:03:48.274Z,61.99
2022-10-17T16:04:48.254Z,63.24
2022-10-17T16:05:48.242Z,63.20
2022-10-17T16:06:48.234Z,64.22
2022-10-17T16:07:48.272Z,62.81
2022-10-17T16:08:48.228Z,62.47
2022-10-17T16:09:48.220Z,61.00
2022-10-17T16:10:48.197Z,63.54
2022-10-17T16:11:48.182Z,61.00
2022-10-17T16:12:48.176Z,63.11
2022-10-17T16:13:48.200Z,63.40
2022-10-17T16:14:48.163Z,61.60
2022-10-17T16:15:48.147Z,62.47
2022-10-17T16:16:48.281Z,62.34
2022-10-17T16:17:48.216Z,60.69
2022-10-17T16:18:48.128Z,62.05
2022-10-17T16:19:48.111Z,63.66
2022-10-17T16:20:48.097Z,61.52
2022-10-17T16:21:48.087Z,61.37
2022-10-17T16:22:48.083Z,62.44
2022-10-17T16:23:48.089Z,61.94
2022-10-17T16:24:48.055Z,63.39
2022-10-17T16:25:48.046Z,61.74
2022-10-17T16:26:48.039Z,61.33
2022-10-17T16:27:48.024Z,62.75
2022-10-17T16:28:48.089Z,61.13
2022-10-17T16:29:48.014Z,63.81
2022-10-17T16:30:48.003Z,62.46
2022-10-17T16:31:47.988Z,63.70
2022-10-17T16:32:47.981Z,61.25
2022-10-17T16:33:48.013Z,62.79
2022-10-17T16:34:47.960Z,63.08
2022-10-17T16:35:47.950Z,61.67
2022-10-17T16:36:47.939Z,63.09
2022-10-17T16:37:47.931Z,62.54
2022-10-17T16:38:47.934Z,61.18
2022-10-17T16:39:47.913Z,60.97
2022-10-17T16:40:47.901Z,63.70
2022-10-17T16:41:47.892Z,62.76
2022-10-17T16:42:47.881Z,59.28
2022-10-17T16:43:47.927Z,60.27
2022-10-17T16:44:47.864Z,62.34
2022-10-17T16:45:47.853Z,60.14
2022-10-17T16:46:47.849Z,63.11
2022-10-17T16:47:47.847Z,61.48
2022-10-17T16:48:47.847Z,61.25
2022-10-17T16:49:47.819Z,62.35
2022-10-17T16:50:47.809Z,60.22
2022-10-17T16:51:47.797Z,60.72
2022-10-17T16:52:47.789Z,60.77
2022-10-17T16:53:47.804Z,60.77
2022-10-17T16:54:47.771Z,62.60
2022-10-17T16:55:47.760Z,62.05
2022-10-17T16:56:47.751Z,60.87
2022-10-17T16:57:47.742Z,61.54
2022-10-17T16:58:47.741Z,62.10
2022-10-17T16:59:47.720Z,61.21
2022-10-17T17:00:47.751Z,61.11
2022-10-17T17:01:47.691Z,61.80
2022-10-17T17:02:47.733Z,61.39
2022-10-17T17:03:47.689Z,62.20
2022-10-17T17:04:47.666Z,60.40
2022-10-17T17:05:47.727Z,61.57
2022-10-17T17:06:47.653Z,62.58
2022-10-17T17:07:47.638Z,62.27
2022-10-17T17:08:47.642Z,59.79
2022-10-17T17:09:47.617Z,62.03
2022-10-17T17:10:47.612Z,61.72
2022-10-17T17:11:47.597Z,61.77
2022-10-17T17:12:47.591Z,62.51
2022-10-17T17:13:47.601Z,61.04
2022-10-17T17:14:47.576Z,61.03
2022-10-17T17:15:47.564Z,61.19
2022-10-17T17:16:47.551Z,60.12
2022-10-17T17:17:51.464Z,63.17
2022-10-17T17:18:49.548Z,60.57
2022-10-17T17:19:47.534Z,62.33
2022-10-17T17:20:47.516Z,62.09
2022-10-17T17:21:47.505Z,63.48
2022-10-17T17:22:47.498Z,62.60
2022-10-17T17:23:47.503Z,63.90
2022-10-17T17:25:47.528Z,61.87
2022-10-17T17:26:47.455Z,61.44
2022-10-17T17:27:47.449Z,61.77
2022-10-17T17:28:47.481Z,60.57
2022-10-17T17:29:47.445Z,62.91
2022-10-17T17:30:47.418Z,64.95
2022-10-17T17:31:47.411Z,63.56
2022-10-17T17:32:47.399Z,61.59
2022-10-17T17:33:47.435Z,62.71
2022-10-17T17:34:47.388Z,62.60
2022-10-17T17:35:47.367Z,63.04
2022-10-17T17:36:47.371Z,62.39
2022-10-17T17:37:47.353Z,62.29
2022-10-17T17:38:47.344Z,59.47
2022-10-17T17:39:47.343Z,61.21
2022-10-17T17:40:50.588Z,63.46
2022-10-17T17:41:48.312Z,65.26
2022-10-17T17:42:47.334Z,61.25
2022-10-17T17:43:47.298Z,59.79
2022-10-17T17:44:47.296Z,63.40
2022-10-17T17:45:47.274Z,61.39
2022-10-17T17:46:47.264Z,61.74
2022-10-17T17:47:47.254Z,64.27
2022-10-17T17:48:47.357Z,63.06
2022-10-17T17:49:47.389Z,64.70
2022-10-17T17:50:47.218Z,61.97
2022-10-17T17:51:47.219Z,62.93
2022-10-17T17:52:47.199Z,63.34
2022-10-17T17:53:47.197Z,62.11
2022-10-17T17:54:47.201Z,63.91
2022-10-17T17:55:47.171Z,61.03
2022-10-17T17:56:47.166Z,62.35
2022-10-17T17:57:47.159Z,63.27
2022-10-17T17:58:47.144Z,64.63
2022-10-17T17:59:47.151Z,60.38
2022-10-17T18:00:47.131Z,62.36
2022-10-17T18:01:47.139Z,61.14
2022-10-17T18:02:47.112Z,61.96
2022-10-17T18:03:47.117Z,62.70
2022-10-17T18:04:47.106Z,62.92
2022-10-17T18:05:47.080Z,64.47
2022-10-17T18:06:47.074Z,60.00
2022-10-17T18:07:47.067Z,62.81
2022-10-17T18:08:47.052Z,61.64
2022-10-17T18:09:47.055Z,63.73
2022-10-17T18:10:47.034Z,63.97
2022-10-17T18:11:47.022Z,62.59
2022-10-17T18:12:47.027Z,63.28
2022-10-17T18:13:47.005Z,58.26
2022-10-17T18:14:47.005Z,61.31
2022-10-17T18:15:47.014Z,61.37
2022-10-17T18:16:46.972Z,62.21
2022-10-17T18:17:46.965Z,62.10
2022-10-17T18:18:46.955Z,61.99
2022-10-17T18:19:46.952Z,63.61
2022-10-17T18:20:46.936Z,64.37
2022-10-17T18:21:46.924Z,61.83
2022-10-17T18:22:46.912Z,61.75
2022-10-17T18:23:46.903Z,61.90
2022-10-17T18:24:46.905Z,62.26
2022-10-17T18:25:46.885Z,62.23
2022-10-17T18:26:46.892Z,62.24
2022-10-17T18:27:46.863Z,63.46
2022-10-17T18:28:46.850Z,60.75
2022-10-17T18:29:46.855Z,63.82
2022-10-17T18:30:46.833Z,64.05
2022-10-17T18:31:46.829Z,60.84
2022-10-17T18:32:46.827Z,62.62
2022-10-17T18:33:46.804Z,61.94
2022-10-17T18:34:46.803Z,60.44
2022-10-17T18:35:46.784Z,63.23
2022-10-17T18:36:46.777Z,61.70
2022-10-17T18:37:46.774Z,59.52
2022-10-17T18:38:46.759Z,61.65
2022-10-17T18:39:46.760Z,61.13
2022-10-17T18:40:49.975Z,62.79
2022-10-17T18:41:46.741Z,61.39
2022-10-17T18:42:47.713Z,60.00
2022-10-17T18:43:46.711Z,63.10
2022-10-17T18:44:46.711Z,62.44
2022-10-17T18:45:46.691Z,62.46
2022-10-17T18:46:46.687Z,61.69
2022-10-17T18:47:46.671Z,60.94
2022-10-17T18:48:46.662Z,60.25
2022-10-17T18:49:46.663Z,60.25
2022-10-17T18:50:46.644Z,60.91
2022-10-17T18:51:46.631Z,60.93
2022-10-17T18:52:46.626Z,61.03
2022-10-17T18:53:46.617Z,60.22
2022-10-17T18:54:46.608Z,60.12
2022-10-17T18:56:47.579Z,60.90
2022-10-17T18:57:46.572Z,59.83
2022-10-17T18:58:46.562Z,60.16
2022-10-17T18:59:46.563Z,61.65
2022-10-17T19:00:46.543Z,57.67
2022-10-17T19:01:46.588Z,61.13
2022-10-17T19:02:46.524Z,60.69
2022-10-17T19:03:46.514Z,60.29
2022-10-17T19:05:18.425Z,61.57
2022-10-17T19:05:46.498Z,61.70
2022-10-17T19:06:46.489Z,62.89
2022-10-17T19:07:46.477Z,61.53
2022-10-17T19:08:46.480Z,61.94
2022-10-17T19:09:46.446Z,63.13
2022-10-17T19:10:47.455Z,63.40
2022-10-17T19:11:46.443Z,59.05
2022-10-17T19:12:46.421Z,60.44
2022-10-17T19:14:47.405Z,60.19
2022-10-17T19:15:46.410Z,58.49
2022-10-17T19:16:46.412Z,61.69
2022-10-17T19:17:46.379Z,63.01
2022-10-17T19:18:46.379Z,61.28
2022-10-17T19:19:46.395Z,61.81
2022-10-17T19:20:46.352Z,62.91
2022-10-17T19:21:46.346Z,60.66
2022-10-17T19:22:46.371Z,60.61
2022-10-17T19:23:46.333Z,62.42
2022-10-17T19:24:46.314Z,62.16
2022-10-17T19:25:46.299Z,61.21
2022-10-17T19:26:46.293Z,60.18
2022-10-17T19:27:46.281Z,60.83
2022-10-17T19:28:46.300Z,60.90
2022-10-17T19:29:46.259Z,57.33
2022-10-17T19:30:46.253Z,60.72
2022-10-17T19:31:46.275Z,62.41
2022-10-17T19:32:46.234Z,60.85
2022-10-17T19:33:46.234Z,59.66
2022-10-17T19:34:46.215Z,58.76
2022-10-17T19:35:46.201Z,61.40
2022-10-17T19:36:46.191Z,60.45
2022-10-17T19:37:46.245Z,59.94
2022-10-17T19:38:46.181Z,60.88
2022-10-17T19:39:46.157Z,57.67
2022-10-17T19:40:46.221Z,60.54
2022-10-17T19:41:46.141Z,62.98
2022-10-17T19:42:46.129Z,58.93
2022-10-17T19:43:46.167Z,60.23
2022-10-17T19:44:46.112Z,61.60
2022-10-17T19:45:46.103Z,61.69
2022-10-17T19:46:46.092Z,60.69
2022-10-17T19:47:46.086Z,59.60
2022-10-17T19:48:46.090Z,61.52
2022-10-17T19:49:49.852Z,61.37
2022-10-17T19:50:47.055Z,63.42
2022-10-17T19:51:46.056Z,61.81
2022-10-17T19:52:46.037Z,60.10
2022-10-17T19:53:46.038Z,62.17
2022-10-17T19:54:46.015Z,60.52
2022-10-17T19:55:46.007Z,61.98
2022-10-17T19:56:45.994Z,62.77
2022-10-17T19:57:45.996Z,61.34
2022-10-17T19:58:45.985Z,61.31
2022-10-17T19:59:45.970Z,61.62
2022-10-17T20:00:45.961Z,58.66
2022-10-17T20:01:46.021Z,59.62
2022-10-17T20:02:45.930Z,63.24
2022-10-17T20:03:45.936Z,59.11
2022-10-17T20:04:54.546Z,61.43
2022-10-17T20:05:46.909Z,61.76
2022-10-17T20:06:45.897Z,59.92
2022-10-17T20:07:45.890Z,61.11
2022-10-17T20:08:45.887Z,63.71
2022-10-17T20:09:45.871Z,60.41
2022-10-17T20:10:45.859Z,57.79
2022-10-17T20:11:45.855Z,59.79
2022-10-17T20:12:45.839Z,62.67
2022-10-17T20:13:45.840Z,62.13
2022-10-17T20:14:45.825Z,59.78
2022-10-17T20:15:45.833Z,58.16
2022-10-17T20:16:45.799Z,60.92
2022-10-17T20:17:45.792Z,62.15
2022-10-17T20:18:45.794Z,60.72
2022-10-17T20:19:45.773Z,62.29
2022-10-17T20:20:45.761Z,62.17
2022-10-17T20:21:45.766Z,61.34
2022-10-17T20:22:45.751Z,60.60
2022-10-17T20:23:45.748Z,58.00
2022-10-17T20:24:45.725Z,61.86
2022-10-17T20:25:45.714Z,61.60
2022-10-17T20:26:45.709Z,61.00
2022-10-17T20:27:45.695Z,61.91
2022-10-17T20:28:45.759Z,60.39
2022-10-17T20:29:45.676Z,62.07
2022-10-17T20:30:45.667Z,60.41
2022-10-17T20:31:45.653Z,61.37
2022-10-17T20:32:45.647Z,60.35
2022-10-17T20:33:45.646Z,59.96
2022-10-17T20:34:45.628Z,59.32
2022-10-17T20:36:46.608Z,60.96
2022-10-17T20:37:45.591Z,61.22
2022-10-17T20:38:45.598Z,62.76
2022-10-17T20:39:45.571Z,61.66
2022-10-17T20:40:45.566Z,58.50
2022-10-17T20:41:45.644Z,58.74
2022-10-17T20:42:45.550Z,59.71
2022-10-17T20:43:45.550Z,55.67
2022-10-17T20:45:51.346Z,61.53
2022-10-17T20:47:00.647Z,56.40
2022-10-17T20:47:51.563Z,54.78
2022-10-17T20:48:46.505Z,56.90
2022-10-17T20:49:45.483Z,60.00
2022-10-17T20:50:45.474Z,63.66
2022-10-17T20:51:45.466Z,61.85
2022-10-17T20:52:45.454Z,60.82
2022-10-17T20:53:45.500Z,60.06
2022-10-17T20:54:45.433Z,60.63
2022-10-17T20:55:45.427Z,59.78
2022-10-17T20:56:45.412Z,61.15
2022-10-17T20:57:45.405Z,60.76
2022-10-17T20:58:45.410Z,60.12
2022-10-17T20:59:45.379Z,63.38
2022-10-17T21:00:45.381Z,58.71
2022-10-17T21:01:45.567Z,61.09
2022-10-17T21:02:45.427Z,59.40
2022-10-17T21:03:46.628Z,60.26
2022-10-17T21:04:47.276Z,61.54
2022-10-17T21:05:46.327Z,63.51
2022-10-17T21:06:45.314Z,63.18
2022-10-17T21:07:45.304Z,59.90
2022-10-17T21:08:45.308Z,60.98
2022-10-17T21:09:45.292Z,63.28
2022-10-17T21:10:45.276Z,59.37
2022-10-17T21:11:45.268Z,58.03
2022-10-17T21:12:53.841Z,61.27
2022-10-17T21:13:47.256Z,59.61
2022-10-17T21:14:45.235Z,59.88
2022-10-17T21:15:45.227Z,61.73
2022-10-17T21:16:45.219Z,58.25
2022-10-17T21:17:45.207Z,59.66
2022-10-17T21:18:45.216Z,60.72
2022-10-17T21:19:45.180Z,57.69
2022-10-17T21:20:45.274Z,59.88
2022-10-17T21:21:45.168Z,55.03
2022-10-17T21:22:45.154Z,57.96
2022-10-17T21:23:45.176Z,61.82
2022-10-17T21:24:45.140Z,59.88
2022-10-17T21:25:45.122Z,59.48
2022-10-17T21:26:45.133Z,59.31
2022-10-17T21:27:45.106Z,59.04
2022-10-17T21:28:45.147Z,59.19
2022-10-17T21:29:45.102Z,60.36
2022-10-17T21:30:45.076Z,60.70
2022-10-17T21:31:45.074Z,59.85
2022-10-17T21:32:51.469Z,60.42
2022-10-17T21:33:47.099Z,63.14
2022-10-17T21:34:45.035Z,58.52
2022-10-17T21:35:45.048Z,58.33
2022-10-17T21:36:45.014Z,59.31
2022-10-17T21:37:45.028Z,58.47
2022-10-17T21:38:44.996Z,58.02
2022-10-17T21:39:44.997Z,61.39
2022-10-17T21:40:44.980Z,58.63
2022-10-17T21:41:44.973Z,59.03
2022-10-17T21:42:44.986Z,58.82
2022-10-17T21:43:44.965Z,59.79
2022-10-17T21:44:44.953Z,58.48
2022-10-17T21:45:44.933Z,57.68
2022-10-17T21:46:44.920Z,58.43
2022-10-17T21:47:49.763Z,60.36
2022-10-17T21:48:46.902Z,60.19
2022-10-17T21:49:44.901Z,56.48
2022-10-17T21:50:44.880Z,60.55
2022-10-17T21:51:44.870Z,58.53
2022-10-17T21:52:44.859Z,61.10
2022-10-17T21:53:44.853Z,57.91
2022-10-17T21:54:44.856Z,59.81
2022-10-17T21:55:44.834Z,62.34
2022-10-17T21:56:44.823Z,61.79
2022-10-17T21:57:44.816Z,58.47
2022-10-17T21:58:44.807Z,58.03
2022-10-17T21:59:44.806Z,57.59
2022-10-17T22:00:44.784Z,59.91
2022-10-17T22:01:44.815Z,56.90
2022-10-17T22:02:44.760Z,60.62
2022-10-17T22:03:46.783Z,60.20
2022-10-17T22:04:44.750Z,60.47
2022-10-17T22:05:44.734Z,60.14
2022-10-17T22:06:44.723Z,60.37
2022-10-17T22:07:44.713Z,59.60
2022-10-17T22:08:44.715Z,59.16
2022-10-17T22:09:44.695Z,58.79
2022-10-17T22:10:44.759Z,58.30
2022-10-17T22:11:44.671Z,62.10
2022-10-17T22:12:44.664Z,58.40
2022-10-17T22:13:44.657Z,58.86
2022-10-17T22:14:44.677Z,59.54
2022-10-17T22:15:44.636Z,56.78
2022-10-17T22:16:44.627Z,58.28
2022-10-17T22:17:44.618Z,59.97
2022-10-17T22:18:44.628Z,56.19
2022-10-17T22:19:44.598Z,58.09
2022-10-17T22:20:44.624Z,57.94
2022-10-17T22:21:44.572Z,58.48
2022-10-17T22:22:44.574Z,57.76
2022-10-17T22:23:44.555Z,59.10
2022-10-17T22:24:44.551Z,58.76
2022-10-17T22:25:45.539Z,58.70
2022-10-17T22:26:44.542Z,60.38
2022-10-17T22:27:44.598Z,57.23
2022-10-17T22:28:44.551Z,57.05
2022-10-17T22:29:44.515Z,58.21
2022-10-17T22:30:44.548Z,53.76
2022-10-17T22:31:44.490Z,59.60
2022-10-17T22:32:44.475Z,58.47
2022-10-17T22:33:44.462Z,54.93
2022-10-17T22:34:44.464Z,56.21
2022-10-17T22:35:44.445Z,56.79
2022-10-17T22:36:44.434Z,57.25
2022-10-17T22:37:44.421Z,58.33
2022-10-17T22:38:44.412Z,58.73
2022-10-17T22:39:44.412Z,59.56
2022-10-17T22:40:44.400Z,56.16
2022-10-17T22:41:44.381Z,60.59
2022-10-17T22:42:44.370Z,56.48
2022-10-17T22:43:44.372Z,57.72
2022-10-17T22:44:44.360Z,57.52
2022-10-17T22:45:44.338Z,56.96
2022-10-17T22:46:44.333Z,60.47
2022-10-17T22:47:44.321Z,58.26
2022-10-17T22:48:44.316Z,57.62
2022-10-17T22:49:44.314Z,53.55
2022-10-17T22:50:44.297Z,56.21
2022-10-17T22:51:44.283Z,53.72
2022-10-17T22:52:44.275Z,58.76
2022-10-17T22:53:44.263Z,52.26
2022-10-17T22:54:44.267Z,58.29
2022-10-17T22:55:44.245Z,58.96
2022-10-17T22:56:44.242Z,58.28
2022-10-17T22:57:44.237Z,55.10
2022-10-17T22:58:44.223Z,56.86
2022-10-17T22:59:44.219Z,54.34
2022-10-17T23:00:44.202Z,55.54
2022-10-17T23:01:44.232Z,56.32
2022-10-17T23:02:44.180Z,55.29
2022-10-17T23:03:44.176Z,54.98
2022-10-17T23:04:44.173Z,59.90
2022-10-17T23:05:44.152Z,60.56
2022-10-17T23:06:44.139Z,60.67
2022-10-17T23:07:44.130Z,57.78
2022-10-17T23:08:44.121Z,58.97
2022-10-17T23:09:44.123Z,59.36
2022-10-17T23:10:44.104Z,58.86
2022-10-17T23:11:44.098Z,55.73
2022-10-17T23:12:44.085Z,60.11
2022-10-17T23:13:44.078Z,56.07
2022-10-17T23:14:44.077Z,56.77
2022-10-17T23:15:44.053Z,58.49
2022-10-17T23:16:44.043Z,59.51
2022-10-17T23:17:44.039Z,59.13
2022-10-17T23:18:44.025Z,59.38
2022-10-17T23:19:44.025Z,57.82
2022-10-17T23:20:44.005Z,57.55
2022-10-17T23:21:43.994Z,55.73
2022-10-17T23:22:43.990Z,57.93
2022-10-17T23:23:43.971Z,60.33
2022-10-17T23:24:43.978Z,59.86
2022-10-17T23:25:43.952Z,56.65
2022-10-17T23:26:43.945Z,56.18
2022-10-17T23:27:43.934Z,55.02
2022-10-17T23:28:43.969Z,60.45
2022-10-17T23:29:43.926Z,60.05
2022-10-17T23:30:43.906Z,56.46
2022-10-17T23:31:43.897Z,56.98
2022-10-17T23:32:43.890Z,53.77
2022-10-17T23:33:43.878Z,60.62
2022-10-17T23:34:43.874Z,59.36
2022-10-17T23:35:43.850Z,58.02
2022-10-17T23:36:43.846Z,56.60
2022-10-17T23:37:43.837Z,53.88
2022-10-17T23:38:43.825Z,59.10
2022-10-17T23:39:43.832Z,56.57
2022-10-17T23:40:43.808Z,58.83